Johnstown, Ohio
Current Conditions -  °F | °C
As of 3:11 PM on Friday 31 Oct 2014 (Local Time) from KCMH Reporting Station
Light Rain Light Rain  
Wind Chill: 41°   Ceiling: 2300
Heat Index: 45°   Visibility: 7mi
Dew Point: 39°   Wind: 6mph
Humidity: 81%   Direction: 290°WNW
Pressure: 29.85"   Gusts: NA
Location:  40.15°N, 82.69°W
Report Text: KCMH 311911Z 29005KT 7SM -RA FEW016 BKN023 OVC030 07/04 A2985 RMK AO2 P0000
Loading
Personal Weather Stations






























Interactive Weather Map
Tropical Storm Tracking
New forecast layout! Learn more

10-Day Weather Forecast

Advertisements
Track Severe Weather on mobile